sensor_id;sensor_type;location;lat;lon;timestamp;temperature;humidity
8824;DHT22;4448;50.904;4.694;2023-08-06T00:00:11;16.70;99.90
8824;DHT22;4448;50.904;4.694;2023-08-06T00:02:36;16.70;99.90
8824;DHT22;4448;50.904;4.694;2023-08-06T00:05:02;16.70;99.90
8824;DHT22;4448;50.904;4.694;2023-08-06T00:07:28;16.70;99.90
8824;DHT22;4448;50.904;4.694;2023-08-06T00:09:54;16.70;99.90
8824;DHT22;4448;50.904;4.694;2023-08-06T00:12:19;16.70;99.90
8824;DHT22;4448;50.904;4.694;2023-08-06T00:14:45;16.70;99.90
8824;DHT22;4448;50.904;4.694;2023-08-06T00:17:11;16.70;99.90
8824;DHT22;4448;50.904;4.694;2023-08-06T00:19:36;16.70;99.90
8824;DHT22;4448;50.904;4.694;2023-08-06T00:22:02;16.70;99.90
8824;DHT22;4448;50.904;4.694;2023-08-06T00:24:28;16.70;99.90
8824;DHT22;4448;50.904;4.694;2023-08-06T00:26:54;16.70;99.90
8824;DHT22;4448;50.904;4.694;2023-08-06T00:29:19;16.70;99.90
8824;DHT22;4448;50.904;4.694;2023-08-06T00:31:45;16.70;99.90
8824;DHT22;4448;50.904;4.694;2023-08-06T00:34:11;16.70;99.90
8824;DHT22;4448;50.904;4.694;2023-08-06T00:36:36;16.70;99.90
8824;DHT22;4448;50.904;4.694;2023-08-06T00:39:02;16.70;99.90
8824;DHT22;4448;50.904;4.694;2023-08-06T00:41:28;16.70;99.90
8824;DHT22;4448;50.904;4.694;2023-08-06T00:43:54;16.70;99.90
8824;DHT22;4448;50.904;4.694;2023-08-06T00:46:20;16.70;99.90
8824;DHT22;4448;50.904;4.694;2023-08-06T00:48:46;16.70;99.90
8824;DHT22;4448;50.904;4.694;2023-08-06T00:51:12;16.70;99.90
8824;DHT22;4448;50.904;4.694;2023-08-06T00:53:39;16.70;99.90
8824;DHT22;4448;50.904;4.694;2023-08-06T00:56:06;16.60;99.90
8824;DHT22;4448;50.904;4.694;2023-08-06T00:58:32;16.60;99.90
8824;DHT22;4448;50.904;4.694;2023-08-06T01:00:58;16.70;99.90
8824;DHT22;4448;50.904;4.694;2023-08-06T01:03:23;16.70;99.90
8824;DHT22;4448;50.904;4.694;2023-08-06T01:05:49;16.70;99.90
8824;DHT22;4448;50.904;4.694;2023-08-06T01:08:44;16.60;99.90
8824;DHT22;4448;50.904;4.694;2023-08-06T01:13:58;16.70;99.90
8824;DHT22;4448;50.904;4.694;2023-08-06T01:16:25;16.60;99.90
8824;DHT22;4448;50.904;4.694;2023-08-06T01:18:51;16.70;99.90
8824;DHT22;4448;50.904;4.694;2023-08-06T01:21:17;16.70;99.90
8824;DHT22;4448;50.904;4.694;2023-08-06T01:23:43;16.70;99.90
8824;DHT22;4448;50.904;4.694;2023-08-06T01:28:58;16.70;99.90
8824;DHT22;4448;50.904;4.694;2023-08-06T01:31:30;16.70;99.90
8824;DHT22;4448;50.904;4.694;2023-08-06T01:33:58;16.70;99.90
8824;DHT22;4448;50.904;4.694;2023-08-06T01:36:24;16.70;99.90
8824;DHT22;4448;50.904;4.694;2023-08-06T01:38:52;16.70;99.90
8824;DHT22;4448;50.904;4.694;2023-08-06T01:41:18;16.70;99.90
8824;DHT22;4448;50.904;4.694;2023-08-06T01:43:44;16.60;99.90
8824;DHT22;4448;50.904;4.694;2023-08-06T01:46:10;16.70;99.90
8824;DHT22;4448;50.904;4.694;2023-08-06T01:48:35;16.70;99.90
8824;DHT22;4448;50.904;4.694;2023-08-06T01:51:03;16.60;99.90
8824;DHT22;4448;50.904;4.694;2023-08-06T01:53:29;16.60;99.90
8824;DHT22;4448;50.904;4.694;2023-08-06T01:55:55;16.70;99.90
8824;DHT22;4448;50.904;4.694;2023-08-06T01:58:20;16.70;99.90
8824;DHT22;4448;50.904;4.694;2023-08-06T02:00:46;16.70;99.90
8824;DHT22;4448;50.904;4.694;2023-08-06T02:03:12;16.70;99.90
8824;DHT22;4448;50.904;4.694;2023-08-06T02:05:37;16.70;99.90
8824;DHT22;4448;50.904;4.694;2023-08-06T02:08:03;16.70;99.90
8824;DHT22;4448;50.904;4.694;2023-08-06T02:10:29;16.70;99.90
8824;DHT22;4448;50.904;4.694;2023-08-06T02:12:54;16.70;99.90
8824;DHT22;4448;50.904;4.694;2023-08-06T02:15:20;16.70;99.90
8824;DHT22;4448;50.904;4.694;2023-08-06T02:17:45;16.60;99.90
8824;DHT22;4448;50.904;4.694;2023-08-06T02:20:11;16.70;99.90
8824;DHT22;4448;50.904;4.694;2023-08-06T02:22:37;16.70;99.90
8824;DHT22;4448;50.904;4.694;2023-08-06T02:25:02;16.70;99.90
8824;DHT22;4448;50.904;4.694;2023-08-06T02:27:28;16.80;99.90
8824;DHT22;4448;50.904;4.694;2023-08-06T02:29:54;16.80;99.90
8824;DHT22;4448;50.904;4.694;2023-08-06T02:32:19;16.80;99.90
8824;DHT22;4448;50.904;4.694;2023-08-06T02:34:45;16.80;99.90
8824;DHT22;4448;50.904;4.694;2023-08-06T02:37:11;16.80;99.90
8824;DHT22;4448;50.904;4.694;2023-08-06T02:39:36;16.80;99.90
8824;DHT22;4448;50.904;4.694;2023-08-06T02:42:08;16.80;99.90
8824;DHT22;4448;50.904;4.694;2023-08-06T02:44:34;16.80;99.90
8824;DHT22;4448;50.904;4.694;2023-08-06T02:47:00;16.80;99.90
8824;DHT22;4448;50.904;4.694;2023-08-06T02:49:26;16.80;99.90
8824;DHT22;4448;50.904;4.694;2023-08-06T02:51:52;16.80;99.90
8824;DHT22;4448;50.904;4.694;2023-08-06T02:54:18;16.80;99.90
8824;DHT22;4448;50.904;4.694;2023-08-06T02:56:45;16.80;99.90
8824;DHT22;4448;50.904;4.694;2023-08-06T02:59:12;16.80;99.90
8824;DHT22;4448;50.904;4.694;2023-08-06T03:01:37;16.80;99.90
8824;DHT22;4448;50.904;4.694;2023-08-06T03:04:03;16.80;99.90
8824;DHT22;4448;50.904;4.694;2023-08-06T03:06:29;16.80;99.90
8824;DHT22;4448;50.904;4.694;2023-08-06T03:08:55;16.70;99.90
8824;DHT22;4448;50.904;4.694;2023-08-06T03:11:20;16.80;99.90
8824;DHT22;4448;50.904;4.694;2023-08-06T03:13:47;16.80;99.90
8824;DHT22;4448;50.904;4.694;2023-08-06T03:16:13;16.80;99.90
8824;DHT22;4448;50.904;4.694;2023-08-06T03:18:38;16.80;99.90
8824;DHT22;4448;50.904;4.694;2023-08-06T03:21:04;16.80;99.90
8824;DHT22;4448;50.904;4.694;2023-08-06T03:23:30;16.80;99.90
8824;DHT22;4448;50.904;4.694;2023-08-06T03:25:56;16.80;99.90
8824;DHT22;4448;50.904;4.694;2023-08-06T03:28:21;16.80;99.90
8824;DHT22;4448;50.904;4.694;2023-08-06T03:30:48;16.80;99.90
8824;DHT22;4448;50.904;4.694;2023-08-06T03:33:13;16.80;99.90
8824;DHT22;4448;50.904;4.694;2023-08-06T03:35:39;16.80;99.90
8824;DHT22;4448;50.904;4.694;2023-08-06T03:38:05;16.80;99.90
8824;DHT22;4448;50.904;4.694;2023-08-06T03:40:31;16.80;99.90
8824;DHT22;4448;50.904;4.694;2023-08-06T03:42:56;16.80;99.90
8824;DHT22;4448;50.904;4.694;2023-08-06T03:45:22;16.80;99.90
8824;DHT22;4448;50.904;4.694;2023-08-06T03:47:48;16.80;99.90
8824;DHT22;4448;50.904;4.694;2023-08-06T03:50:13;16.80;99.90
8824;DHT22;4448;50.904;4.694;2023-08-06T03:52:39;16.80;99.90
8824;DHT22;4448;50.904;4.694;2023-08-06T03:55:05;16.90;99.90
8824;DHT22;4448;50.904;4.694;2023-08-06T03:57:31;16.80;99.90
8824;DHT22;4448;50.904;4.694;2023-08-06T03:59:56;16.90;99.90
8824;DHT22;4448;50.904;4.694;2023-08-06T04:02:22;16.80;99.90
8824;DHT22;4448;50.904;4.694;2023-08-06T04:04:48;16.90;99.90
8824;DHT22;4448;50.904;4.694;2023-08-06T04:07:14;16.90;99.90
8824;DHT22;4448;50.904;4.694;2023-08-06T04:09:58;16.90;99.90
8824;DHT22;4448;50.904;4.694;2023-08-06T04:12:23;16.80;99.90
8824;DHT22;4448;50.904;4.694;2023-08-06T04:14:50;16.90;99.90
8824;DHT22;4448;50.904;4.694;2023-08-06T04:17:17;16.90;99.90
8824;DHT22;4448;50.904;4.694;2023-08-06T04:19:47;16.90;99.90
8824;DHT22;4448;50.904;4.694;2023-08-06T04:22:13;16.90;99.90
8824;DHT22;4448;50.904;4.694;2023-08-06T04:24:39;16.90;99.90
8824;DHT22;4448;50.904;4.694;2023-08-06T04:27:05;16.90;99.90
8824;DHT22;4448;50.904;4.694;2023-08-06T04:29:30;16.90;99.90
8824;DHT22;4448;50.904;4.694;2023-08-06T04:31:56;16.90;99.90
8824;DHT22;4448;50.904;4.694;2023-08-06T04:34:22;16.90;99.90
8824;DHT22;4448;50.904;4.694;2023-08-06T04:36:48;16.90;99.90
8824;DHT22;4448;50.904;4.694;2023-08-06T04:39:14;16.90;99.90
8824;DHT22;4448;50.904;4.694;2023-08-06T04:41:40;16.90;99.90
8824;DHT22;4448;50.904;4.694;2023-08-06T04:44:05;16.90;99.90
8824;DHT22;4448;50.904;4.694;2023-08-06T04:46:31;16.90;99.90
8824;DHT22;4448;50.904;4.694;2023-08-06T04:48:57;16.90;99.90
8824;DHT22;4448;50.904;4.694;2023-08-06T04:51:22;16.90;99.90
8824;DHT22;4448;50.904;4.694;2023-08-06T04:53:48;16.90;99.90
8824;DHT22;4448;50.904;4.694;2023-08-06T04:56:14;16.90;99.90
8824;DHT22;4448;50.904;4.694;2023-08-06T04:58:40;16.90;99.90
8824;DHT22;4448;50.904;4.694;2023-08-06T05:01:06;16.90;99.90
8824;DHT22;4448;50.904;4.694;2023-08-06T05:03:32;16.90;99.90
8824;DHT22;4448;50.904;4.694;2023-08-06T05:05:57;16.90;99.90
8824;DHT22;4448;50.904;4.694;2023-08-06T05:08:23;16.90;99.90
8824;DHT22;4448;50.904;4.694;2023-08-06T05:10:49;16.80;99.90
8824;DHT22;4448;50.904;4.694;2023-08-06T05:13:14;16.80;99.90
8824;DHT22;4448;50.904;4.694;2023-08-06T05:15:41;16.80;99.90
8824;DHT22;4448;50.904;4.694;2023-08-06T05:18:08;16.80;99.90
8824;DHT22;4448;50.904;4.694;2023-08-06T05:20:38;16.80;99.90
8824;DHT22;4448;50.904;4.694;2023-08-06T05:23:04;16.70;99.90
8824;DHT22;4448;50.904;4.694;2023-08-06T05:25:30;16.70;99.90
8824;DHT22;4448;50.904;4.694;2023-08-06T05:27:55;16.70;99.90
8824;DHT22;4448;50.904;4.694;2023-08-06T05:30:21;16.60;99.90
8824;DHT22;4448;50.904;4.694;2023-08-06T05:32:47;16.70;99.90
8824;DHT22;4448;50.904;4.694;2023-08-06T05:35:12;16.60;99.90
8824;DHT22;4448;50.904;4.694;2023-08-06T05:37:38;16.60;99.90
8824;DHT22;4448;50.904;4.694;2023-08-06T05:40:04;16.60;99.90
8824;DHT22;4448;50.904;4.694;2023-08-06T05:42:31;16.60;99.90
8824;DHT22;4448;50.904;4.694;2023-08-06T05:44:56;16.50;99.90
8824;DHT22;4448;50.904;4.694;2023-08-06T05:47:22;16.50;99.90
8824;DHT22;4448;50.904;4.694;2023-08-06T05:49:48;16.60;99.90
8824;DHT22;4448;50.904;4.694;2023-08-06T05:52:13;16.60;99.90
8824;DHT22;4448;50.904;4.694;2023-08-06T05:54:39;16.60;99.90
8824;DHT22;4448;50.904;4.694;2023-08-06T05:57:06;16.60;99.90
8824;DHT22;4448;50.904;4.694;2023-08-06T05:59:31;16.50;99.90
8824;DHT22;4448;50.904;4.694;2023-08-06T06:01:57;16.50;99.90
8824;DHT22;4448;50.904;4.694;2023-08-06T06:04:23;16.50;99.90
8824;DHT22;4448;50.904;4.694;2023-08-06T06:06:49;16.50;99.90
8824;DHT22;4448;50.904;4.694;2023-08-06T06:09:14;16.50;99.90
8824;DHT22;4448;50.904;4.694;2023-08-06T06:11:40;16.50;99.90
8824;DHT22;4448;50.904;4.694;2023-08-06T06:14:05;16.50;99.90
8824;DHT22;4448;50.904;4.694;2023-08-06T06:16:31;16.50;99.90
8824;DHT22;4448;50.904;4.694;2023-08-06T06:18:57;16.50;99.90
8824;DHT22;4448;50.904;4.694;2023-08-06T06:21:23;16.50;99.90
8824;DHT22;4448;50.904;4.694;2023-08-06T06:23:49;16.50;99.90
8824;DHT22;4448;50.904;4.694;2023-08-06T06:26:17;16.50;99.90
8824;DHT22;4448;50.904;4.694;2023-08-06T06:28:43;16.50;99.90
8824;DHT22;4448;50.904;4.694;2023-08-06T06:31:09;16.50;99.90
8824;DHT22;4448;50.904;4.694;2023-08-06T06:33:35;16.50;99.90
8824;DHT22;4448;50.904;4.694;2023-08-06T06:36:00;16.50;99.90
8824;DHT22;4448;50.904;4.694;2023-08-06T06:38:28;16.50;99.90
8824;DHT22;4448;50.904;4.694;2023-08-06T06:40:55;16.50;99.90
8824;DHT22;4448;50.904;4.694;2023-08-06T06:43:21;16.50;99.90
8824;DHT22;4448;50.904;4.694;2023-08-06T06:45:46;16.50;99.90
8824;DHT22;4448;50.904;4.694;2023-08-06T06:48:12;16.50;99.90
8824;DHT22;4448;50.904;4.694;2023-08-06T06:50:37;16.60;99.90
8824;DHT22;4448;50.904;4.694;2023-08-06T06:53:04;16.60;99.90
8824;DHT22;4448;50.904;4.694;2023-08-06T06:55:30;16.60;99.90
8824;DHT22;4448;50.904;4.694;2023-08-06T06:57:56;16.60;99.90
8824;DHT22;4448;50.904;4.694;2023-08-06T07:00:21;16.60;99.90
8824;DHT22;4448;50.904;4.694;2023-08-06T07:02:47;16.60;99.90
8824;DHT22;4448;50.904;4.694;2023-08-06T07:05:13;16.60;99.90
8824;DHT22;4448;50.904;4.694;2023-08-06T07:07:40;16.60;99.90
8824;DHT22;4448;50.904;4.694;2023-08-06T07:10:06;16.60;99.90
8824;DHT22;4448;50.904;4.694;2023-08-06T07:12:32;16.60;99.90
8824;DHT22;4448;50.904;4.694;2023-08-06T07:14:58;16.70;99.90
8824;DHT22;4448;50.904;4.694;2023-08-06T07:17:24;16.70;99.90
8824;DHT22;4448;50.904;4.694;2023-08-06T07:19:50;16.70;99.90
8824;DHT22;4448;50.904;4.694;2023-08-06T07:22:15;16.70;99.90
8824;DHT22;4448;50.904;4.694;2023-08-06T07:24:41;16.70;99.90
8824;DHT22;4448;50.904;4.694;2023-08-06T07:27:07;16.70;99.90
8824;DHT22;4448;50.904;4.694;2023-08-06T07:29:32;16.70;99.90
8824;DHT22;4448;50.904;4.694;2023-08-06T07:31:58;16.80;99.90
8824;DHT22;4448;50.904;4.694;2023-08-06T07:34:23;16.70;99.90
8824;DHT22;4448;50.904;4.694;2023-08-06T07:36:49;16.70;99.90
8824;DHT22;4448;50.904;4.694;2023-08-06T07:39:15;16.70;99.90
8824;DHT22;4448;50.904;4.694;2023-08-06T07:41:42;16.70;99.90
8824;DHT22;4448;50.904;4.694;2023-08-06T07:44:07;16.70;99.90
8824;DHT22;4448;50.904;4.694;2023-08-06T07:46:33;16.80;99.90
8824;DHT22;4448;50.904;4.694;2023-08-06T07:48:59;16.80;99.90
8824;DHT22;4448;50.904;4.694;2023-08-06T07:51:24;16.80;99.90
8824;DHT22;4448;50.904;4.694;2023-08-06T07:53:50;16.90;99.90
8824;DHT22;4448;50.904;4.694;2023-08-06T07:56:16;16.90;99.90
8824;DHT22;4448;50.904;4.694;2023-08-06T07:58:41;16.90;99.90
8824;DHT22;4448;50.904;4.694;2023-08-06T08:01:07;16.80;99.90
8824;DHT22;4448;50.904;4.694;2023-08-06T08:03:33;16.80;99.90
8824;DHT22;4448;50.904;4.694;2023-08-06T08:05:58;16.80;99.90
8824;DHT22;4448;50.904;4.694;2023-08-06T08:08:25;16.90;99.90
8824;DHT22;4448;50.904;4.694;2023-08-06T08:10:51;17.10;99.90
8824;DHT22;4448;50.904;4.694;2023-08-06T08:13:16;16.90;99.90
8824;DHT22;4448;50.904;4.694;2023-08-06T08:15:42;16.90;99.90
8824;DHT22;4448;50.904;4.694;2023-08-06T08:18:07;16.90;99.90
8824;DHT22;4448;50.904;4.694;2023-08-06T08:20:33;17.00;99.90
8824;DHT22;4448;50.904;4.694;2023-08-06T08:23:01;17.10;99.90
8824;DHT22;4448;50.904;4.694;2023-08-06T08:25:27;17.10;99.90
8824;DHT22;4448;50.904;4.694;2023-08-06T08:27:54;17.10;99.90
8824;DHT22;4448;50.904;4.694;2023-08-06T08:30:21;17.10;99.90
8824;DHT22;4448;50.904;4.694;2023-08-06T08:32:47;17.10;99.90
8824;DHT22;4448;50.904;4.694;2023-08-06T08:35:13;17.10;99.90
8824;DHT22;4448;50.904;4.694;2023-08-06T08:37:39;17.10;99.90
8824;DHT22;4448;50.904;4.694;2023-08-06T08:40:06;17.10;99.90
8824;DHT22;4448;50.904;4.694;2023-08-06T08:42:32;17.10;99.90
8824;DHT22;4448;50.904;4.694;2023-08-06T08:44:58;17.10;99.90
8824;DHT22;4448;50.904;4.694;2023-08-06T08:47:24;17.10;99.90
8824;DHT22;4448;50.904;4.694;2023-08-06T08:49:53;17.10;99.90
8824;DHT22;4448;50.904;4.694;2023-08-06T08:52:21;17.10;99.90
8824;DHT22;4448;50.904;4.694;2023-08-06T08:54:48;16.80;99.90
8824;DHT22;4448;50.904;4.694;2023-08-06T08:57:18;17.20;99.90
8824;DHT22;4448;50.904;4.694;2023-08-06T08:59:44;17.20;99.90
8824;DHT22;4448;50.904;4.694;2023-08-06T09:02:12;17.20;99.90
8824;DHT22;4448;50.904;4.694;2023-08-06T09:04:39;17.20;99.90
8824;DHT22;4448;50.904;4.694;2023-08-06T09:07:07;17.20;99.90
8824;DHT22;4448;50.904;4.694;2023-08-06T09:09:34;17.20;99.90
8824;DHT22;4448;50.904;4.694;2023-08-06T09:12:11;17.20;99.90
8824;DHT22;4448;50.904;4.694;2023-08-06T09:14:37;17.20;99.90
8824;DHT22;4448;50.904;4.694;2023-08-06T09:17:04;17.20;99.90
8824;DHT22;4448;50.904;4.694;2023-08-06T09:19:31;17.20;99.90
8824;DHT22;4448;50.904;4.694;2023-08-06T09:21:57;17.00;99.90
8824;DHT22;4448;50.904;4.694;2023-08-06T09:24:23;17.20;99.90
8824;DHT22;4448;50.904;4.694;2023-08-06T09:26:49;17.20;99.90
8824;DHT22;4448;50.904;4.694;2023-08-06T09:29:15;17.20;99.90
8824;DHT22;4448;50.904;4.694;2023-08-06T09:31:43;17.20;99.90
8824;DHT22;4448;50.904;4.694;2023-08-06T09:34:15;17.10;99.90
8824;DHT22;4448;50.904;4.694;2023-08-06T09:36:43;17.10;99.90
8824;DHT22;4448;50.904;4.694;2023-08-06T09:39:15;17.10;99.90
8824;DHT22;4448;50.904;4.694;2023-08-06T09:41:42;17.10;99.90
8824;DHT22;4448;50.904;4.694;2023-08-06T09:44:19;17.10;99.90
8824;DHT22;4448;50.904;4.694;2023-08-06T09:46:53;17.10;99.90
8824;DHT22;4448;50.904;4.694;2023-08-06T09:49:27;17.10;99.90
8824;DHT22;4448;50.904;4.694;2023-08-06T09:51:53;17.20;99.90
8824;DHT22;4448;50.904;4.694;2023-08-06T09:54:22;17.20;99.90
8824;DHT22;4448;50.904;4.694;2023-08-06T09:56:48;17.10;99.90
8824;DHT22;4448;50.904;4.694;2023-08-06T09:59:14;17.10;99.90
8824;DHT22;4448;50.904;4.694;2023-08-06T10:01:41;17.10;99.90
8824;DHT22;4448;50.904;4.694;2023-08-06T10:04:07;17.20;99.90
8824;DHT22;4448;50.904;4.694;2023-08-06T10:06:34;17.10;99.90
8824;DHT22;4448;50.904;4.694;2023-08-06T10:09:04;17.10;99.90
8824;DHT22;4448;50.904;4.694;2023-08-06T10:11:30;17.10;99.90
8824;DHT22;4448;50.904;4.694;2023-08-06T10:14:12;17.10;99.90
8824;DHT22;4448;50.904;4.694;2023-08-06T10:16:40;17.10;99.90
8824;DHT22;4448;50.904;4.694;2023-08-06T10:19:09;17.10;99.90
8824;DHT22;4448;50.904;4.694;2023-08-06T10:21:35;17.10;99.90
8824;DHT22;4448;50.904;4.694;2023-08-06T10:24:01;17.10;99.90
8824;DHT22;4448;50.904;4.694;2023-08-06T10:26:29;17.10;99.90
8824;DHT22;4448;50.904;4.694;2023-08-06T10:28:55;17.00;99.90
8824;DHT22;4448;50.904;4.694;2023-08-06T10:31:53;17.10;99.90
8824;DHT22;4448;50.904;4.694;2023-08-06T10:34:22;17.00;99.90
8824;DHT22;4448;50.904;4.694;2023-08-06T10:36:47;17.00;99.90
8824;DHT22;4448;50.904;4.694;2023-08-06T10:39:14;17.00;99.90
8824;DHT22;4448;50.904;4.694;2023-08-06T10:41:42;17.00;99.90
8824;DHT22;4448;50.904;4.694;2023-08-06T10:44:08;17.00;99.90
8824;DHT22;4448;50.904;4.694;2023-08-06T10:46:34;17.00;99.90
8824;DHT22;4448;50.904;4.694;2023-08-06T10:49:01;16.90;99.90
8824;DHT22;4448;50.904;4.694;2023-08-06T10:51:27;16.90;99.90
8824;DHT22;4448;50.904;4.694;2023-08-06T10:53:53;17.00;99.90
8824;DHT22;4448;50.904;4.694;2023-08-06T10:56:21;17.00;99.90
8824;DHT22;4448;50.904;4.694;2023-08-06T10:58:48;16.90;99.90
8824;DHT22;4448;50.904;4.694;2023-08-06T11:01:14;17.00;99.90
8824;DHT22;4448;50.904;4.694;2023-08-06T11:03:42;17.00;99.90
8824;DHT22;4448;50.904;4.694;2023-08-06T11:06:08;17.00;99.90
8824;DHT22;4448;50.904;4.694;2023-08-06T11:08:40;17.00;99.90
8824;DHT22;4448;50.904;4.694;2023-08-06T11:11:15;16.90;99.90
8824;DHT22;4448;50.904;4.694;2023-08-06T11:13:49;17.00;99.90
8824;DHT22;4448;50.904;4.694;2023-08-06T11:16:19;17.00;99.90
8824;DHT22;4448;50.904;4.694;2023-08-06T11:18:45;16.90;99.90
8824;DHT22;4448;50.904;4.694;2023-08-06T11:21:11;17.10;99.90
8824;DHT22;4448;50.904;4.694;2023-08-06T11:23:37;17.00;99.90
8824;DHT22;4448;50.904;4.694;2023-08-06T11:26:03;16.90;99.90
8824;DHT22;4448;50.904;4.694;2023-08-06T11:28:29;17.00;99.90
8824;DHT22;4448;50.904;4.694;2023-08-06T11:30:55;17.00;99.90
8824;DHT22;4448;50.904;4.694;2023-08-06T11:33:23;16.90;99.90
8824;DHT22;4448;50.904;4.694;2023-08-06T11:35:51;16.90;99.90
8824;DHT22;4448;50.904;4.694;2023-08-06T11:38:17;16.90;99.90
8824;DHT22;4448;50.904;4.694;2023-08-06T11:40:52;16.90;99.90
8824;DHT22;4448;50.904;4.694;2023-08-06T11:43:19;16.90;99.90
8824;DHT22;4448;50.904;4.694;2023-08-06T11:45:51;17.00;99.90
8824;DHT22;4448;50.904;4.694;2023-08-06T11:48:19;16.90;99.90
8824;DHT22;4448;50.904;4.694;2023-08-06T11:50:45;17.00;99.90
8824;DHT22;4448;50.904;4.694;2023-08-06T11:53:13;16.90;99.90
8824;DHT22;4448;50.904;4.694;2023-08-06T11:55:40;16.80;99.90
8824;DHT22;4448;50.904;4.694;2023-08-06T11:58:06;16.80;99.90
8824;DHT22;4448;50.904;4.694;2023-08-06T12:00:32;16.90;99.90
8824;DHT22;4448;50.904;4.694;2023-08-06T12:02:58;16.90;99.90
8824;DHT22;4448;50.904;4.694;2023-08-06T12:05:29;16.80;99.90
8824;DHT22;4448;50.904;4.694;2023-08-06T12:07:56;16.80;99.90
8824;DHT22;4448;50.904;4.694;2023-08-06T12:10:24;16.80;99.90
8824;DHT22;4448;50.904;4.694;2023-08-06T12:12:50;16.80;99.90
8824;DHT22;4448;50.904;4.694;2023-08-06T12:15:16;16.80;99.90
8824;DHT22;4448;50.904;4.694;2023-08-06T12:17:42;16.90;99.90
8824;DHT22;4448;50.904;4.694;2023-08-06T12:20:09;16.90;99.90
8824;DHT22;4448;50.904;4.694;2023-08-06T12:22:35;17.00;99.90
8824;DHT22;4448;50.904;4.694;2023-08-06T12:25:02;16.90;99.90
8824;DHT22;4448;50.904;4.694;2023-08-06T12:27:35;16.90;99.90
8824;DHT22;4448;50.904;4.694;2023-08-06T12:30:00;16.90;99.90
8824;DHT22;4448;50.904;4.694;2023-08-06T12:32:26;16.90;99.90
8824;DHT22;4448;50.904;4.694;2023-08-06T12:34:52;16.90;99.90
8824;DHT22;4448;50.904;4.694;2023-08-06T12:37:18;16.90;99.90
8824;DHT22;4448;50.904;4.694;2023-08-06T12:39:43;16.90;99.90
8824;DHT22;4448;50.904;4.694;2023-08-06T12:42:09;16.90;99.90
8824;DHT22;4448;50.904;4.694;2023-08-06T12:44:36;17.00;99.90
8824;DHT22;4448;50.904;4.694;2023-08-06T12:47:01;16.90;99.90
8824;DHT22;4448;50.904;4.694;2023-08-06T12:49:27;16.90;99.90
8824;DHT22;4448;50.904;4.694;2023-08-06T12:51:54;16.90;99.90
8824;DHT22;4448;50.904;4.694;2023-08-06T12:54:22;16.90;99.90
8824;DHT22;4448;50.904;4.694;2023-08-06T12:56:48;16.90;99.90
8824;DHT22;4448;50.904;4.694;2023-08-06T12:59:15;16.90;99.90
8824;DHT22;4448;50.904;4.694;2023-08-06T13:01:41;16.90;99.90
8824;DHT22;4448;50.904;4.694;2023-08-06T13:04:07;16.90;99.90
8824;DHT22;4448;50.904;4.694;2023-08-06T13:06:33;16.90;99.90
8824;DHT22;4448;50.904;4.694;2023-08-06T13:09:09;16.90;99.90
8824;DHT22;4448;50.904;4.694;2023-08-06T13:11:35;16.90;99.90
8824;DHT22;4448;50.904;4.694;2023-08-06T13:14:09;16.90;99.90
8824;DHT22;4448;50.904;4.694;2023-08-06T13:16:37;16.90;99.90
8824;DHT22;4448;50.904;4.694;2023-08-06T13:19:04;16.90;99.90
8824;DHT22;4448;50.904;4.694;2023-08-06T13:21:34;16.90;99.90
8824;DHT22;4448;50.904;4.694;2023-08-06T13:24:01;17.00;99.90
8824;DHT22;4448;50.904;4.694;2023-08-06T13:26:28;16.90;99.90
8824;DHT22;4448;50.904;4.694;2023-08-06T13:28:56;16.90;99.90
8824;DHT22;4448;50.904;4.694;2023-08-06T13:31:22;16.90;99.90
8824;DHT22;4448;50.904;4.694;2023-08-06T13:33:47;16.80;99.90
8824;DHT22;4448;50.904;4.694;2023-08-06T13:36:15;17.00;99.90
8824;DHT22;4448;50.904;4.694;2023-08-06T13:38:41;16.90;99.90
8824;DHT22;4448;50.904;4.694;2023-08-06T13:41:07;17.00;99.90
8824;DHT22;4448;50.904;4.694;2023-08-06T13:43:32;17.00;99.90
8824;DHT22;4448;50.904;4.694;2023-08-06T13:45:58;17.00;99.90
8824;DHT22;4448;50.904;4.694;2023-08-06T13:48:24;17.00;99.90
8824;DHT22;4448;50.904;4.694;2023-08-06T13:50:50;17.00;99.90
8824;DHT22;4448;50.904;4.694;2023-08-06T13:53:15;17.00;99.90
8824;DHT22;4448;50.904;4.694;2023-08-06T13:55:41;17.00;99.90
8824;DHT22;4448;50.904;4.694;2023-08-06T13:58:06;16.90;99.90
8824;DHT22;4448;50.904;4.694;2023-08-06T14:00:32;16.80;99.90
8824;DHT22;4448;50.904;4.694;2023-08-06T14:02:58;16.80;99.90
8824;DHT22;4448;50.904;4.694;2023-08-06T14:05:23;16.80;99.90
8824;DHT22;4448;50.904;4.694;2023-08-06T14:07:49;16.80;99.90
8824;DHT22;4448;50.904;4.694;2023-08-06T14:10:15;16.80;99.90
8824;DHT22;4448;50.904;4.694;2023-08-06T14:12:40;16.70;99.90
8824;DHT22;4448;50.904;4.694;2023-08-06T14:15:06;16.70;99.90
8824;DHT22;4448;50.904;4.694;2023-08-06T14:17:32;16.70;99.90
8824;DHT22;4448;50.904;4.694;2023-08-06T14:19:58;16.80;99.90
8824;DHT22;4448;50.904;4.694;2023-08-06T14:22:23;16.60;99.90
8824;DHT22;4448;50.904;4.694;2023-08-06T14:24:49;16.70;99.90
8824;DHT22;4448;50.904;4.694;2023-08-06T14:27:15;16.60;99.90
8824;DHT22;4448;50.904;4.694;2023-08-06T14:29:40;16.60;99.90
8824;DHT22;4448;50.904;4.694;2023-08-06T14:32:06;16.60;99.90
8824;DHT22;4448;50.904;4.694;2023-08-06T14:34:32;16.60;99.90
8824;DHT22;4448;50.904;4.694;2023-08-06T14:36:57;16.60;99.90
8824;DHT22;4448;50.904;4.694;2023-08-06T14:39:24;16.60;99.90
8824;DHT22;4448;50.904;4.694;2023-08-06T14:41:50;16.70;99.90
8824;DHT22;4448;50.904;4.694;2023-08-06T14:44:16;16.60;99.90
8824;DHT22;4448;50.904;4.694;2023-08-06T14:46:41;16.60;99.90
8824;DHT22;4448;50.904;4.694;2023-08-06T14:49:07;16.70;99.90
8824;DHT22;4448;50.904;4.694;2023-08-06T14:51:32;16.70;99.90
8824;DHT22;4448;50.904;4.694;2023-08-06T14:53:58;16.70;99.90
8824;DHT22;4448;50.904;4.694;2023-08-06T14:56:24;16.70;99.90
8824;DHT22;4448;50.904;4.694;2023-08-06T14:58:49;16.80;99.90
8824;DHT22;4448;50.904;4.694;2023-08-06T15:01:15;16.80;99.90
8824;DHT22;4448;50.904;4.694;2023-08-06T15:03:40;16.90;99.90
8824;DHT22;4448;50.904;4.694;2023-08-06T15:06:06;16.90;99.90
8824;DHT22;4448;50.904;4.694;2023-08-06T15:08:33;16.90;99.90
8824;DHT22;4448;50.904;4.694;2023-08-06T15:10:58;16.90;99.90
8824;DHT22;4448;50.904;4.694;2023-08-06T15:13:27;16.90;99.90
8824;DHT22;4448;50.904;4.694;2023-08-06T15:15:53;17.00;99.90
8824;DHT22;4448;50.904;4.694;2023-08-06T15:18:18;16.90;99.90
8824;DHT22;4448;50.904;4.694;2023-08-06T15:20:44;16.80;99.90
8824;DHT22;4448;50.904;4.694;2023-08-06T15:23:10;16.80;99.90
8824;DHT22;4448;50.904;4.694;2023-08-06T15:25:36;16.80;99.90
8824;DHT22;4448;50.904;4.694;2023-08-06T15:28:01;16.80;99.90
8824;DHT22;4448;50.904;4.694;2023-08-06T15:30:27;16.80;99.90
8824;DHT22;4448;50.904;4.694;2023-08-06T15:32:53;16.70;99.90
8824;DHT22;4448;50.904;4.694;2023-08-06T15:35:18;16.70;99.90
8824;DHT22;4448;50.904;4.694;2023-08-06T15:37:44;16.80;99.90
8824;DHT22;4448;50.904;4.694;2023-08-06T15:40:10;16.70;99.90
8824;DHT22;4448;50.904;4.694;2023-08-06T15:42:36;16.70;99.90
8824;DHT22;4448;50.904;4.694;2023-08-06T15:45:02;16.80;99.90
8824;DHT22;4448;50.904;4.694;2023-08-06T15:47:29;16.70;99.90
8824;DHT22;4448;50.904;4.694;2023-08-06T15:49:54;16.80;99.90
8824;DHT22;4448;50.904;4.694;2023-08-06T15:52:20;16.80;99.90
8824;DHT22;4448;50.904;4.694;2023-08-06T15:54:46;16.80;99.90
8824;DHT22;4448;50.904;4.694;2023-08-06T15:57:11;16.80;99.90
8824;DHT22;4448;50.904;4.694;2023-08-06T15:59:37;16.90;99.90
8824;DHT22;4448;50.904;4.694;2023-08-06T16:02:03;16.90;99.90